createdAt,value
2022-12-31T00:02:18.996Z,1.49
2022-12-31T00:04:45.694Z,1.52
2022-12-31T00:07:12.350Z,1.50
2022-12-31T00:09:39.058Z,1.52
2022-12-31T00:12:05.875Z,1.54
2022-12-31T00:14:32.415Z,1.46
2022-12-31T00:16:59.016Z,1.40
2022-12-31T00:19:25.677Z,1.35
2022-12-31T00:21:52.305Z,1.26
2022-12-31T00:24:18.901Z,1.10
2022-12-31T00:26:45.503Z,0.94
2022-12-31T00:29:12.257Z,0.79
2022-12-31T00:31:39.413Z,0.74
2022-12-31T00:34:07.141Z,0.88
2022-12-31T00:36:37.321Z,1.08
2022-12-31T00:39:06.131Z,1.30
2022-12-31T00:41:32.803Z,1.46
2022-12-31T00:43:59.707Z,1.61
2022-12-31T00:46:26.608Z,1.72
2022-12-31T00:48:53.531Z,1.83
2022-12-31T00:51:23.268Z,1.89
2022-12-31T00:53:50.276Z,1.93
2022-12-31T00:56:20.235Z,1.98
2022-12-31T00:58:47.450Z,1.96
2022-12-31T01:01:20.014Z,1.93
2022-12-31T01:03:48.946Z,1.89
2022-12-31T01:06:16.252Z,1.87
2022-12-31T01:08:43.838Z,1.81
2022-12-31T01:11:24.606Z,1.78
2022-12-31T01:13:54.893Z,1.82
2022-12-31T01:16:25.453Z,1.76
2022-12-31T01:18:53.058Z,1.77
2022-12-31T01:21:21.013Z,1.78
2022-12-31T01:23:47.985Z,1.78
2022-12-31T01:26:16.656Z,1.64
2022-12-31T01:28:43.286Z,1.44
2022-12-31T01:31:12.881Z,1.40
2022-12-31T01:33:40.549Z,1.44
2022-12-31T01:36:11.484Z,1.41
2022-12-31T01:38:38.607Z,1.25
2022-12-31T01:41:05.619Z,1.18
2022-12-31T01:43:54.224Z,0.94
2022-12-31T01:46:25.848Z,0.76
2022-12-31T01:48:57.829Z,0.66
2022-12-31T01:51:27.317Z,0.68
2022-12-31T01:53:54.783Z,0.70
2022-12-31T01:56:22.911Z,0.71
2022-12-31T01:58:52.339Z,0.71
2022-12-31T02:01:29.102Z,0.68
2022-12-31T02:03:57.912Z,0.85
2022-12-31T02:06:32.016Z,0.93
2022-12-31T02:08:58.652Z,0.87
2022-12-31T02:11:28.976Z,0.84
2022-12-31T02:14:00.570Z,0.74
2022-12-31T02:16:46.161Z,0.85
2022-12-31T02:19:43.627Z,0.96
2022-12-31T02:22:38.715Z,1.11
2022-12-31T02:25:30.053Z,1.27
2022-12-31T02:28:44.772Z,1.57
2022-12-31T02:31:35.469Z,1.93
2022-12-31T02:34:21.868Z,2.19
2022-12-31T02:36:52.093Z,2.33
2022-12-31T02:39:18.721Z,2.46
2022-12-31T02:41:52.083Z,2.51
2022-12-31T02:44:38.750Z,2.62
2022-12-31T02:47:11.492Z,2.66
2022-12-31T02:49:53.193Z,2.71
2022-12-31T02:52:38.370Z,2.74
2022-12-31T02:55:49.946Z,2.78
2022-12-31T02:58:46.424Z,2.82
2022-12-31T03:01:36.993Z,2.88
2022-12-31T03:04:24.452Z,2.98
2022-12-31T03:06:52.555Z,3.11
2022-12-31T03:09:19.216Z,3.16
2022-12-31T03:12:04.961Z,3.19
2022-12-31T03:14:31.501Z,3.22
2022-12-31T03:16:58.104Z,3.26
2022-12-31T03:19:43.032Z,3.28
2022-12-31T03:22:27.885Z,3.25
2022-12-31T03:25:20.331Z,3.03
2022-12-31T03:27:47.433Z,3.34
2022-12-31T03:30:16.889Z,3.37
2022-12-31T03:32:45.114Z,3.40
2022-12-31T03:35:14.155Z,3.42
2022-12-31T03:37:41.324Z,3.60
2022-12-31T03:40:11.052Z,3.72
2022-12-31T03:42:37.869Z,3.83
2022-12-31T03:45:05.359Z,3.89
2022-12-31T03:47:32.011Z,3.88
2022-12-31T03:49:58.647Z,3.92
2022-12-31T03:52:25.177Z,3.93
2022-12-31T03:54:51.717Z,3.78
2022-12-31T03:57:18.411Z,3.94
2022-12-31T03:59:45.027Z,3.91
2022-12-31T04:02:11.758Z,3.87
2022-12-31T04:04:38.432Z,3.88
2022-12-31T04:07:04.993Z,3.89
2022-12-31T04:09:31.569Z,3.85
2022-12-31T04:11:58.338Z,3.78
2022-12-31T04:14:24.930Z,3.75
2022-12-31T04:16:51.612Z,3.69
2022-12-31T04:19:18.272Z,3.67
2022-12-31T04:21:44.897Z,3.64
2022-12-31T04:24:11.610Z,3.68
2022-12-31T04:26:38.582Z,3.72
2022-12-31T04:29:05.696Z,3.76
2022-12-31T04:31:33.355Z,3.78
2022-12-31T04:33:59.961Z,3.80
2022-12-31T04:36:27.286Z,3.82
2022-12-31T04:38:53.980Z,3.72
2022-12-31T04:41:21.185Z,3.88
2022-12-31T04:43:50.498Z,3.94
2022-12-31T04:46:19.679Z,3.98
2022-12-31T04:48:46.427Z,3.99
2022-12-31T04:51:13.994Z,4.03
2022-12-31T04:53:41.216Z,3.99
2022-12-31T04:56:08.815Z,4.07
2022-12-31T04:58:36.953Z,4.09
2022-12-31T05:01:04.016Z,4.15
2022-12-31T05:03:31.290Z,4.18
2022-12-31T05:06:02.780Z,4.20
2022-12-31T05:08:30.003Z,4.23
2022-12-31T05:10:56.715Z,4.27
2022-12-31T05:13:28.068Z,4.29
2022-12-31T05:15:59.587Z,4.31
2022-12-31T05:18:26.443Z,4.32
2022-12-31T05:20:53.068Z,4.33
2022-12-31T05:23:19.910Z,4.33
2022-12-31T05:25:47.900Z,4.03
2022-12-31T05:28:15.475Z,4.29
2022-12-31T05:30:43.032Z,4.32
2022-12-31T05:33:10.032Z,4.33
2022-12-31T05:35:37.216Z,4.30
2022-12-31T05:38:03.890Z,4.26
2022-12-31T05:40:30.485Z,4.26
2022-12-31T05:42:57.129Z,4.31
2022-12-31T05:45:30.143Z,4.31
2022-12-31T05:47:57.504Z,4.34
2022-12-31T05:50:24.344Z,4.35
2022-12-31T05:52:50.888Z,4.35
2022-12-31T05:55:17.715Z,4.35
2022-12-31T05:57:44.383Z,4.35
2022-12-31T06:00:11.751Z,4.33
2022-12-31T06:02:38.516Z,4.20
2022-12-31T06:05:05.811Z,4.35
2022-12-31T06:07:32.460Z,4.37
2022-12-31T06:09:59.194Z,4.40
2022-12-31T06:12:25.942Z,4.38
2022-12-31T06:14:52.608Z,4.41
2022-12-31T06:17:19.288Z,4.40
2022-12-31T06:19:46.930Z,4.41
2022-12-31T06:22:13.666Z,4.41
2022-12-31T06:24:40.280Z,4.39
2022-12-31T06:27:06.898Z,4.44
2022-12-31T06:29:33.618Z,4.50
2022-12-31T06:32:00.374Z,4.52
2022-12-31T06:34:27.053Z,4.54
2022-12-31T06:36:53.606Z,4.56
2022-12-31T06:39:20.159Z,4.61
2022-12-31T06:41:47.176Z,4.62
2022-12-31T06:44:14.957Z,4.64
2022-12-31T06:46:41.664Z,4.67
2022-12-31T06:49:09.485Z,4.68
2022-12-31T06:51:36.156Z,4.69
2022-12-31T06:54:02.757Z,4.70
2022-12-31T06:56:34.392Z,4.68
2022-12-31T06:59:03.250Z,4.63
2022-12-31T07:01:48.371Z,4.69
2022-12-31T07:04:32.967Z,4.72
2022-12-31T07:07:21.472Z,4.71
2022-12-31T07:10:29.769Z,4.80
2022-12-31T07:13:17.718Z,4.86
2022-12-31T07:15:52.821Z,4.92
2022-12-31T07:18:43.864Z,4.98
2022-12-31T07:21:16.533Z,5.03
2022-12-31T07:23:43.763Z,5.04
2022-12-31T07:26:42.729Z,5.07
2022-12-31T07:29:18.972Z,5.09
2022-12-31T07:32:16.453Z,5.13
2022-12-31T07:35:04.919Z,5.15
2022-12-31T07:37:45.092Z,5.21
2022-12-31T07:40:17.816Z,5.26
2022-12-31T07:43:12.306Z,5.29
2022-12-31T07:46:01.531Z,5.34
2022-12-31T07:48:29.142Z,5.37
2022-12-31T07:50:57.467Z,5.45
2022-12-31T07:53:26.108Z,5.49
2022-12-31T07:55:59.883Z,5.54
2022-12-31T07:58:33.190Z,5.59
2022-12-31T08:01:00.653Z,5.63
2022-12-31T08:04:09.662Z,5.72
2022-12-31T08:07:13.832Z,5.75
2022-12-31T08:09:49.196Z,5.83
2022-12-31T08:12:16.605Z,5.91
2022-12-31T08:14:46.118Z,6.03
2022-12-31T08:17:18.094Z,6.22
2022-12-31T08:19:45.968Z,6.44
2022-12-31T08:22:50.399Z,6.65
2022-12-31T08:25:23.722Z,6.80
2022-12-31T08:28:04.883Z,6.87
2022-12-31T08:30:52.328Z,6.96
2022-12-31T08:33:40.459Z,7.13
2022-12-31T08:36:45.589Z,7.27
2022-12-31T08:39:35.961Z,7.40
2022-12-31T08:42:12.266Z,7.49
2022-12-31T08:44:41.852Z,7.50
2022-12-31T08:47:32.883Z,7.45
2022-12-31T08:50:02.532Z,7.38
2022-12-31T08:52:29.393Z,7.36
2022-12-31T08:54:56.283Z,7.31
2022-12-31T08:57:59.381Z,7.38
2022-12-31T09:00:27.753Z,7.44
2022-12-31T09:03:20.836Z,7.53
2022-12-31T09:06:12.984Z,7.57
2022-12-31T09:08:55.844Z,7.65
2022-12-31T09:11:33.124Z,7.72
2022-12-31T09:14:08.655Z,7.69
2022-12-31T09:17:00.159Z,7.62
2022-12-31T09:19:27.249Z,7.58
2022-12-31T09:21:54.229Z,7.58
2022-12-31T09:24:21.607Z,7.70
2022-12-31T09:26:51.138Z,7.83
2022-12-31T09:29:29.759Z,7.94
2022-12-31T09:31:56.418Z,8.08
2022-12-31T09:34:41.452Z,8.20
2022-12-31T09:37:16.505Z,8.31
2022-12-31T09:39:46.738Z,8.40
2022-12-31T09:42:51.038Z,8.46
2022-12-31T09:45:47.458Z,8.55
2022-12-31T09:48:35.777Z,8.56
2022-12-31T09:51:25.255Z,8.58
2022-12-31T09:53:52.250Z,8.65
2022-12-31T09:57:06.905Z,8.71
2022-12-31T09:59:34.462Z,8.74
2022-12-31T10:02:34.837Z,8.75
2022-12-31T10:05:31.379Z,8.79
2022-12-31T10:08:10.197Z,8.80
2022-12-31T10:11:17.022Z,8.81
2022-12-31T10:14:06.744Z,8.82
2022-12-31T10:16:51.505Z,8.82
2022-12-31T10:19:34.595Z,8.73
2022-12-31T10:22:35.401Z,8.81
2022-12-31T10:25:38.360Z,8.82
2022-12-31T10:28:31.188Z,8.95
2022-12-31T10:31:11.332Z,9.03
2022-12-31T10:34:06.776Z,9.08
2022-12-31T10:37:02.249Z,9.15
2022-12-31T10:39:50.834Z,9.22
2022-12-31T10:42:39.077Z,9.29
2022-12-31T10:45:39.639Z,9.34
2022-12-31T10:48:37.055Z,9.39
2022-12-31T10:51:15.443Z,9.43
2022-12-31T10:54:18.984Z,9.49
2022-12-31T10:57:11.358Z,9.48
2022-12-31T10:59:56.909Z,9.52
2022-12-31T11:02:29.803Z,9.54
2022-12-31T11:05:03.169Z,9.55
2022-12-31T11:08:01.812Z,9.59
2022-12-31T11:11:00.972Z,9.63
2022-12-31T11:13:57.950Z,9.60
2022-12-31T11:16:43.091Z,9.68
2022-12-31T11:19:31.512Z,9.69
2022-12-31T11:22:04.022Z,9.71
2022-12-31T11:25:02.108Z,9.72
2022-12-31T11:28:03.369Z,9.73
2022-12-31T11:30:36.934Z,9.72
2022-12-31T11:33:21.876Z,9.74
2022-12-31T11:36:09.371Z,9.73
2022-12-31T11:38:51.045Z,9.77
2022-12-31T11:41:42.683Z,9.79
2022-12-31T11:44:30.151Z,9.82
2022-12-31T11:47:04.498Z,9.78
2022-12-31T11:49:31.095Z,9.79
2022-12-31T11:52:35.280Z,9.77
2022-12-31T11:55:20.654Z,9.68
2022-12-31T11:57:50.730Z,9.83
2022-12-31T12:00:28.536Z,9.91
2022-12-31T12:03:03.566Z,9.98
2022-12-31T12:05:30.863Z,10.03
2022-12-31T12:07:57.710Z,10.05
2022-12-31T12:10:35.608Z,10.06
2022-12-31T12:13:13.746Z,10.07
2022-12-31T12:15:44.795Z,10.07
2022-12-31T12:18:25.235Z,10.08
2022-12-31T12:20:52.050Z,10.02
2022-12-31T12:23:26.105Z,10.09
2022-12-31T12:25:53.378Z,10.05
2022-12-31T12:28:26.927Z,10.09
2022-12-31T12:31:05.153Z,10.10
2022-12-31T12:33:43.871Z,10.12
2022-12-31T12:36:13.851Z,10.12
2022-12-31T12:38:40.434Z,10.13
2022-12-31T12:41:20.247Z,10.16
2022-12-31T12:43:47.226Z,10.18
2022-12-31T12:46:27.788Z,10.17
2022-12-31T12:48:56.799Z,10.13
2022-12-31T12:52:01.762Z,10.11
2022-12-31T12:54:59.521Z,10.11
2022-12-31T12:57:41.011Z,10.12
2022-12-31T13:00:21.078Z,10.13
2022-12-31T13:03:06.065Z,10.15
2022-12-31T13:06:00.337Z,10.18
2022-12-31T13:08:33.244Z,10.20
2022-12-31T13:11:19.016Z,10.22
2022-12-31T13:14:05.469Z,10.26
2022-12-31T13:16:50.578Z,10.26
2022-12-31T13:19:46.763Z,10.24
2022-12-31T13:22:30.308Z,10.22
2022-12-31T13:25:16.948Z,10.20
2022-12-31T13:27:48.253Z,10.17
2022-12-31T13:30:28.250Z,10.19
2022-12-31T13:33:05.312Z,10.20
2022-12-31T13:35:47.501Z,10.16
2022-12-31T13:38:24.294Z,10.20
2022-12-31T13:41:03.093Z,10.20
2022-12-31T13:44:10.766Z,10.18
2022-12-31T13:46:46.462Z,10.17
2022-12-31T13:49:32.043Z,10.16
2022-12-31T13:52:43.212Z,10.17
2022-12-31T13:55:20.329Z,10.16
2022-12-31T13:57:55.462Z,10.15
2022-12-31T14:00:31.359Z,10.12
2022-12-31T14:03:11.032Z,10.15
2022-12-31T14:05:51.838Z,10.14
2022-12-31T14:08:19.010Z,10.09
2022-12-31T14:11:29.495Z,10.02
2022-12-31T14:14:25.620Z,9.97
2022-12-31T14:17:01.421Z,9.91
2022-12-31T14:19:55.656Z,9.92
2022-12-31T14:22:39.322Z,9.92
2022-12-31T14:25:22.607Z,9.89
2022-12-31T14:27:53.492Z,9.88
2022-12-31T14:30:23.280Z,9.82
2022-12-31T14:33:29.873Z,9.87
2022-12-31T14:36:14.207Z,9.82
2022-12-31T14:39:06.303Z,9.71
2022-12-31T14:41:51.587Z,9.61
2022-12-31T14:44:23.011Z,9.51
2022-12-31T14:47:04.882Z,9.46
2022-12-31T14:50:03.765Z,9.36
2022-12-31T14:52:46.763Z,9.33
2022-12-31T14:55:36.946Z,9.27
2022-12-31T14:58:29.444Z,9.20
2022-12-31T15:01:01.625Z,9.19
2022-12-31T15:03:31.364Z,9.13
2022-12-31T15:06:06.087Z,9.15
2022-12-31T15:09:07.620Z,9.20
2022-12-31T15:11:56.662Z,9.24
2022-12-31T15:14:51.170Z,9.32
2022-12-31T15:17:17.785Z,9.35
2022-12-31T15:20:14.986Z,9.39
2022-12-31T15:22:50.669Z,9.42
2022-12-31T15:25:36.949Z,9.46
2022-12-31T15:28:21.166Z,9.48
2022-12-31T15:30:49.753Z,9.50
2022-12-31T15:33:30.133Z,9.50
2022-12-31T15:35:57.853Z,9.43
2022-12-31T15:38:34.924Z,9.55
2022-12-31T15:41:24.780Z,9.52
2022-12-31T15:44:02.222Z,9.56
2022-12-31T15:46:33.842Z,9.59
2022-12-31T15:49:09.003Z,9.60
2022-12-31T15:52:07.437Z,9.57
2022-12-31T15:54:44.327Z,9.52
2022-12-31T15:57:30.001Z,9.50
2022-12-31T16:00:08.997Z,9.46
2022-12-31T16:02:39.388Z,9.49
2022-12-31T16:05:08.697Z,9.40
2022-12-31T16:07:35.705Z,9.31
2022-12-31T16:10:04.159Z,9.40
2022-12-31T16:12:39.456Z,9.39
2022-12-31T16:15:24.691Z,9.37
2022-12-31T16:18:06.097Z,9.37
2022-12-31T16:20:34.399Z,9.32
2022-12-31T16:23:03.428Z,9.30
2022-12-31T16:25:33.566Z,9.27
2022-12-31T16:28:03.199Z,9.24
2022-12-31T16:30:32.559Z,9.19
2022-12-31T16:33:02.549Z,9.22
2022-12-31T16:35:36.564Z,9.20
2022-12-31T16:38:10.219Z,9.19
2022-12-31T16:40:36.948Z,9.23
2022-12-31T16:43:04.386Z,9.25
2022-12-31T16:45:38.702Z,9.16
2022-12-31T16:48:17.188Z,9.15
2022-12-31T16:50:46.996Z,9.16
2022-12-31T16:53:18.161Z,9.12
2022-12-31T16:56:19.991Z,9.11
2022-12-31T16:58:46.625Z,9.06
2022-12-31T17:01:20.916Z,9.08
2022-12-31T17:03:52.473Z,9.05
2022-12-31T17:06:21.176Z,9.05
2022-12-31T17:09:00.795Z,9.06
2022-12-31T17:11:33.226Z,9.04
2022-12-31T17:14:05.927Z,9.01
2022-12-31T17:16:34.698Z,8.96
2022-12-31T17:19:01.819Z,8.96
2022-12-31T17:21:31.447Z,9.00
2022-12-31T17:24:03.300Z,9.04
2022-12-31T17:26:37.157Z,9.05
2022-12-31T17:29:06.130Z,9.00
2022-12-31T17:31:40.440Z,9.03
2022-12-31T17:34:13.055Z,9.04
2022-12-31T17:37:15.913Z,9.10
2022-12-31T17:39:46.488Z,9.13
2022-12-31T17:42:24.787Z,9.17
2022-12-31T17:44:56.704Z,9.26
2022-12-31T17:47:23.399Z,9.27
2022-12-31T17:49:50.206Z,9.27
2022-12-31T17:52:16.775Z,9.28
2022-12-31T17:54:43.446Z,9.25
2022-12-31T17:57:24.273Z,9.25
2022-12-31T17:59:51.111Z,9.26
2022-12-31T18:02:17.812Z,9.24
2022-12-31T18:04:44.616Z,9.20
2022-12-31T18:07:11.228Z,9.20
2022-12-31T18:09:37.861Z,9.20
2022-12-31T18:12:06.192Z,9.26
2022-12-31T18:14:33.484Z,9.27
2022-12-31T18:17:00.804Z,9.24
2022-12-31T18:20:02.933Z,9.31
2022-12-31T18:22:16.232Z,9.40
2022-12-31T18:24:44.047Z,9.34
2022-12-31T18:27:18.539Z,9.36
2022-12-31T18:29:45.500Z,9.37
2022-12-31T18:32:24.148Z,9.35
2022-12-31T18:34:51.421Z,9.30
2022-12-31T18:37:22.065Z,9.28
2022-12-31T18:39:49.368Z,9.13
2022-12-31T18:42:18.599Z,9.03
2022-12-31T18:44:45.856Z,9.20
2022-12-31T18:47:14.585Z,9.26
2022-12-31T18:49:41.554Z,9.28
2022-12-31T18:52:16.671Z,9.28
2022-12-31T18:54:43.513Z,9.27
2022-12-31T18:57:14.920Z,9.26
2022-12-31T18:59:42.408Z,9.28
2022-12-31T19:02:20.081Z,9.29
2022-12-31T19:04:48.158Z,9.25
2022-12-31T19:07:14.740Z,9.27
2022-12-31T19:09:46.007Z,9.29
2022-12-31T19:12:14.276Z,9.28
2022-12-31T19:14:40.940Z,9.28
2022-12-31T19:19:32.997Z,9.26
2022-12-31T19:21:59.567Z,9.25
2022-12-31T19:24:27.299Z,9.21
2022-12-31T19:26:54.751Z,9.26
2022-12-31T19:29:23.925Z,9.28
2022-12-31T19:31:51.204Z,9.27
2022-12-31T19:34:17.960Z,9.29
2022-12-31T19:36:45.088Z,9.32
2022-12-31T19:39:20.034Z,9.28
2022-12-31T19:41:51.687Z,9.23
2022-12-31T19:44:22.945Z,9.25
2022-12-31T19:46:49.575Z,9.21
2022-12-31T19:49:16.626Z,9.20
2022-12-31T19:51:43.408Z,9.13
2022-12-31T19:54:12.892Z,9.15
2022-12-31T19:56:39.544Z,9.11
2022-12-31T19:59:08.142Z,9.08
2022-12-31T20:01:34.985Z,9.08
2022-12-31T20:04:01.675Z,9.06
2022-12-31T20:06:28.318Z,9.03
2022-12-31T20:08:55.113Z,9.03
2022-12-31T20:11:23.975Z,9.02
2022-12-31T20:13:52.785Z,8.97
2022-12-31T20:16:21.380Z,8.92
2022-12-31T20:18:51.336Z,8.90
2022-12-31T20:21:21.673Z,8.87
2022-12-31T20:23:50.140Z,8.77
2022-12-31T20:26:17.788Z,8.78
2022-12-31T20:28:44.521Z,8.71
2022-12-31T20:31:15.074Z,8.72
2022-12-31T20:33:42.220Z,8.68
2022-12-31T20:36:12.494Z,8.64
2022-12-31T20:38:39.119Z,8.59
2022-12-31T20:41:11.487Z,8.59
2022-12-31T20:43:38.864Z,8.55
2022-12-31T20:46:16.634Z,8.63
2022-12-31T20:48:46.231Z,8.63
2022-12-31T20:51:14.348Z,8.61
2022-12-31T20:53:46.488Z,8.54
2022-12-31T20:56:13.105Z,8.48
2022-12-31T20:58:39.682Z,8.44
2022-12-31T21:01:07.964Z,8.45
2022-12-31T21:06:28.655Z,8.33
2022-12-31T21:09:00.158Z,8.29
2022-12-31T21:11:45.885Z,8.57
2022-12-31T21:14:12.581Z,8.62
2022-12-31T21:16:39.319Z,8.60
2022-12-31T21:19:06.163Z,8.58
2022-12-31T21:21:33.071Z,8.56
2022-12-31T21:23:59.752Z,8.52
2022-12-31T21:26:26.379Z,8.52
2022-12-31T21:28:53.941Z,8.59
2022-12-31T21:31:20.784Z,8.63
2022-12-31T21:33:48.533Z,8.72
2022-12-31T21:36:15.900Z,8.72
2022-12-31T21:38:42.667Z,8.64
2022-12-31T21:41:33.603Z,8.71
2022-12-31T21:44:01.456Z,8.73
2022-12-31T21:46:28.419Z,8.79
2022-12-31T21:48:59.740Z,8.74
2022-12-31T21:51:27.327Z,8.70
2022-12-31T21:53:54.360Z,8.68
2022-12-31T21:56:22.626Z,8.67
2022-12-31T21:59:14.464Z,8.64
2022-12-31T22:01:59.772Z,8.62
2022-12-31T22:07:13.365Z,8.53
2022-12-31T22:09:39.974Z,8.52
2022-12-31T22:12:06.711Z,8.49
2022-12-31T22:14:33.306Z,8.42
2022-12-31T22:17:00.921Z,8.42
2022-12-31T22:19:27.582Z,8.36
2022-12-31T22:21:54.537Z,8.29
2022-12-31T22:24:21.100Z,8.22
2022-12-31T22:26:47.640Z,8.19
2022-12-31T22:29:14.508Z,8.21
2022-12-31T22:31:41.124Z,8.17
2022-12-31T22:34:07.821Z,8.07
2022-12-31T22:36:34.455Z,7.98
2022-12-31T22:39:01.053Z,7.91
2022-12-31T22:41:28.350Z,7.84
2022-12-31T22:44:03.065Z,7.87
2022-12-31T22:46:31.345Z,7.87
2022-12-31T22:48:59.655Z,7.86
2022-12-31T22:51:57.026Z,7.81
2022-12-31T22:54:15.254Z,7.80
2022-12-31T22:56:42.068Z,7.80
2022-12-31T22:59:09.503Z,7.82
2022-12-31T23:01:36.179Z,7.83
2022-12-31T23:04:03.721Z,7.80
2022-12-31T23:06:30.412Z,7.74
2022-12-31T23:09:32.417Z,7.70
2022-12-31T23:11:59.742Z,7.58
2022-12-31T23:14:45.112Z,7.51
2022-12-31T23:17:44.145Z,7.44
2022-12-31T23:20:36.001Z,7.45
2022-12-31T23:23:05.838Z,7.39
2022-12-31T23:25:34.342Z,7.35
2022-12-31T23:28:01.191Z,7.37
2022-12-31T23:30:28.141Z,7.36
2022-12-31T23:32:54.977Z,7.44
2022-12-31T23:35:21.858Z,7.52
2022-12-31T23:37:48.553Z,7.55
2022-12-31T23:40:20.982Z,7.60
2022-12-31T23:42:49.119Z,7.63
2022-12-31T23:45:15.871Z,7.63
2022-12-31T23:47:42.466Z,7.64
2022-12-31T23:50:09.127Z,7.63
2022-12-31T23:52:35.796Z,7.60
2022-12-31T23:55:03.745Z,7.69
2022-12-31T23:57:30.659Z,7.68
2022-12-31T23:59:57.303Z,7.64
